Layton City
, Layton
Last Weather Update:11/21/2011 4:00:00 PM
Date
ETo
ETc
Rain
Irrigation
Req
Temp
Max
Temp
Min
Temp
Avg
Avg RH
Avg Wind
Avg Solar
inches
inches
incehs
inches
F
F
F
%
%
watts/m2
10/1/2011 0.15" 0.09" 0.00" 0.09" 83.6° 56.1° 69.6° 41.5% 3.7 MPH 166.9w/m2
10/2/2011 0.12" 0.07" 0.00" 0.07" 81.5° 59.9° 69.6° 41.9% 2.8 MPH 157.2w/m2
10/3/2011 0.14" 0.07" 0.00" 0.07" 80.9° 56.6° 68.3° 43.4% 4.1 MPH 170.6w/m2
10/4/2011 0.00" 0.00" 0.00" 0.00" 66.9° 64.8° 65.8° 52.6% 4.4 MPH 0.0w/m2
10/5/2011 0.07" 0.04" 0.30" -0.20" 66.7° 43.9° 56.0° 67.6% 9.7 MPH 47.2w/m2
10/6/2011 0.00" 0.00" 0.30" -0.24" 48.7° 42.0° 44.7° 90.3% 7.4 MPH 0.0w/m2
10/7/2011 0.03" 0.01" 0.21" -0.16" 45.4° 40.1° 42.5° 77.6% 3.2 MPH 26.3w/m2
10/8/2011 0.00" 0.00" 0.00" 0.00" 42.0° 40.6° 41.3° 88.8% 4.1 MPH 0.0w/m2
10/9/2011 0.00" 0.00" 0.02" -0.02" 44.1° 39.8° 41.0° 89.1% 2.8 MPH 0.0w/m2
10/10/2011 0.09" 0.04" 0.03" 0.01" 62.2° 39.1° 50.3° 67.2% 3.1 MPH 139.7w/m2
10/11/2011 0.08" 0.03" 0.00" 0.03" 66.8° 46.3° 55.8° 64.6% 2.8 MPH 132.9w/m2
10/12/2011 0.09" 0.03" 0.00" 0.03" 64.6° 40.4° 51.4° 59.8% 1.4 MPH 178.1w/m2
10/13/2011 0.10" 0.03" 0.00" 0.03" 71.9° 41.3° 54.9° 50.9% 1.4 MPH 187.9w/m2
10/14/2011 0.00" 0.00" 0.00" 0.00" 53.9° 49.6° 51.8° 58.7% 1.0 MPH 0.0w/m2
10/15/2011 0.11" 0.03" 0.00" 0.03" 79.5° 48.0° 62.4° 46.9% 1.8 MPH 162.5w/m2
10/16/2011 0.06" 0.02" 0.03" -0.01" 70.6° 49.9° 59.1° 59.7% 2.1 MPH 84.3w/m2
10/17/2011 0.09" 0.03" 0.05" -0.01" 59.9° 44.1° 51.4° 70.0% 2.3 MPH 184.9w/m2
10/18/2011 0.00" 0.00" 0.00" 0.00" 45.6° 42.5° 44.3° 72.3% 0.8 MPH 0.0w/m2
10/19/2011 0.09" 0.02" 0.00" 0.02" 67.1° 38.3° 50.6° 55.8% 1.7 MPH 161.8w/m2
10/20/2011 0.09" 0.02" 0.00" 0.02" 67.1° 39.9° 52.4° 56.1% 1.3 MPH 178.6w/m2
10/21/2011 0.00" 0.00" 0.00" 0.00" 50.6° 46.2° 48.9° 57.3% 1.5 MPH 0.0w/m2
10/22/2011 0.08" 0.01" 0.02" 0.00" 66.3° 41.8° 52.5° 56.1% 1.5 MPH 153.1w/m2
10/23/2011 0.08" 0.01" 0.00" 0.01" 71.3° 39.4° 53.9° 53.1% 1.1 MPH 164.7w/m2
10/24/2011 0.09" 0.01" 0.00" 0.01" 71.4° 43.4° 57.0° 46.0% 2.5 MPH 143.1w/m2
10/25/2011 0.05" 0.01" 0.00" 0.01" 53.5° 38.0° 46.4° 51.2% 3.2 MPH 80.0w/m2
10/26/2011 0.08" 0.01" 0.00" 0.01" 48.8° 34.1° 40.9° 44.9% 4.3 MPH 159.6w/m2
10/27/2011 0.00" 0.00" 0.00" 0.00" 38.1° 32.4° 35.1° 53.4% 1.3 MPH 0.0w/m2
10/28/2011 0.06" 0.00" 0.00" 0.00" 56.6° 26.5° 39.4° 44.8% 1.7 MPH 121.0w/m2
10/29/2011 0.05" 0.00" 0.00" 0.00" 60.1° 30.3° 42.6° 45.7% 1.6 MPH 99.5w/m2
10/30/2011 0.07" 0.00" 0.00" 0.00" 61.8° 35.1° 46.8° 53.9% 1.5 MPH 152.1w/m2
10/31/2011 0.00" 0.00" 0.00" 0.00" 45.2° 41.6° 43.9° 58.7% 1.0 MPH 0.0w/m2
Totals: 1.85" 0.58" 0.96" -0.19" 83.6° 26.5° 51.3° 58.7% 2.7 MPH 98.4w/m2